Time;durP1;ratioP1;P1;durP2;ratioP2;P2;SDS_P1;SDS_P2;PMS_P1;PMS_P2;Temp;Humidity;BMP_temperature;BMP_pressure;BME280_temperature;BME280_humidity;BME280_pressure;Samples;Min_cycle;Max_cycle;Signal;HPM_P1;HPM_P2
2022/08/23 00:04:31;;;;;;;6.25;2.22;;;;;;;22.81;73.47;99959.25;18491498;32;20096;-57
2022/08/23 00:14:43;;;;;;;7.00;2.47;;;;;;;22.86;73.48;99959.81;18490757;32;20138;-56
2022/08/23 00:24:51;;;;;;;5.37;2.30;;;;;;;22.95;72.79;99952.22;18489910;32;20097;-56
2022/08/23 00:34:58;;;;;;;6.03;2.22;;;;;;;22.85;73.01;99951.94;18492351;32;20085;-57
2022/08/23 00:55:33;;;;;;;6.72;2.60;;;;;;;22.69;73.62;99962.66;18497866;32;20104;-56
2022/08/23 01:05:46;;;;;;;5.97;2.28;;;;;;;22.65;73.25;99969.09;18497573;32;20124;-56
2022/08/23 01:15:57;;;;;;;5.82;2.25;;;;;;;22.63;73.48;99971.00;18497047;32;20088;-56
2022/08/23 01:26:09;;;;;;;5.82;2.30;;;;;;;22.59;73.22;99984.47;18496745;32;20139;-57
2022/08/23 01:36:18;;;;;;;6.07;2.50;;;;;;;22.48;73.86;99992.22;18496756;32;20084;-57
2022/08/23 01:46:28;;;;;;;4.45;2.05;;;;;;;22.54;73.25;99994.53;18496397;32;20099;-56
2022/08/23 01:56:36;;;;;;;7.10;2.53;;;;;;;22.46;73.28;100002.06;18496145;32;20127;-56
2022/08/23 02:06:46;;;;;;;4.70;2.20;;;;;;;22.45;73.44;100003.88;18495716;32;20136;-56
2022/08/23 02:16:55;;;;;;;6.40;2.85;;;;;;;22.49;73.20;100012.56;18495089;32;20108;-56
2022/08/23 02:27:13;;;;;;;7.18;2.50;;;;;;;22.50;73.65;100011.62;18495024;32;20115;-56
2022/08/23 02:37:22;;;;;;;7.30;2.58;;;;;;;22.53;73.39;100014.09;18494794;32;20123;-56
2022/08/23 02:47:35;;;;;;;6.90;3.00;;;;;;;22.61;73.01;100015.44;18494631;32;20085;-56
2022/08/23 02:57:43;;;;;;;7.57;3.15;;;;;;;22.51;73.49;100039.94;18493655;32;20107;-56
2022/08/23 03:07:52;;;;;;;8.57;3.55;;;;;;;22.62;73.01;100044.59;18494162;32;20104;-56
2022/08/23 03:18:00;;;;;;;8.02;3.15;;;;;;;22.58;73.50;100051.94;18493360;32;20100;-56
2022/08/23 03:28:10;;;;;;;6.60;3.05;;;;;;;22.65;73.30;100052.41;18493500;32;20096;-56
2022/08/23 03:38:19;;;;;;;9.05;3.55;;;;;;;22.64;73.41;100055.16;18492901;32;20095;-56
2022/08/23 03:48:28;;;;;;;8.25;3.58;;;;;;;22.61;73.57;100055.34;18492391;32;20096;-56
2022/08/23 03:58:38;;;;;;;9.70;3.93;;;;;;;22.56;73.84;100064.44;18498726;32;20084;-57
2022/08/23 04:08:48;;;;;;;9.45;4.00;;;;;;;22.59;73.87;100082.91;18554924;32;20125;-56
2022/08/23 04:18:54;;;;;;;13.13;3.97;;;;;;;22.69;73.66;100095.66;18558560;32;20096;-57
2022/08/23 04:29:03;;;;;;;10.63;4.07;;;;;;;22.69;73.38;100100.97;18560742;32;20123;-58
2022/08/23 04:39:13;;;;;;;10.50;4.28;;;;;;;22.62;73.59;100110.25;18365557;32;20129;-56
2022/08/23 04:49:24;;;;;;;10.48;4.28;;;;;;;22.66;73.57;100104.69;18366857;32;20097;-57
2022/08/23 04:59:32;;;;;;;11.83;4.70;;;;;;;22.62;74.21;100115.56;18397512;32;20097;-56
2022/08/23 05:09:41;;;;;;;10.50;4.62;;;;;;;22.90;73.21;100127.28;18419222;32;20123;-56
2022/08/23 05:19:48;;;;;;;12.37;5.53;;;;;;;22.90;73.75;100132.59;18371336;32;20089;-56
2022/08/23 05:29:57;;;;;;;12.25;5.35;;;;;;;23.11;73.71;100123.34;18373323;32;20105;-56
2022/08/23 05:40:05;;;;;;;11.75;5.82;;;;;;;23.22;73.05;100143.16;18371214;32;20097;-56
2022/08/23 05:50:34;;;;;;;13.35;5.90;;;;;;;23.22;73.43;100153.81;18401469;32;20117;-56
2022/08/23 06:01:00;;;;;;;13.57;6.05;;;;;;;23.22;73.33;100152.00;18400193;32;20144;-56
2022/08/23 06:11:30;;;;;;;15.65;6.80;;;;;;;23.34;73.20;100176.22;18392268;32;20121;-56
2022/08/23 06:21:56;;;;;;;17.25;8.27;;;;;;;23.43;73.19;100183.66;18383292;32;20121;-56
2022/08/23 06:32:05;;;;;;;17.95;7.95;;;;;;;22.86;74.41;100199.31;18422950;32;20396;-56
2022/08/23 06:42:14;;;;;;;21.27;10.07;;;;;;;23.32;72.92;100210.06;18385859;32;20351;-56
2022/08/23 06:52:46;;;;;;;20.12;9.73;;;;;;;23.48;73.05;100215.34;18369629;32;20093;-56
2022/08/23 07:02:54;;;;;;;19.58;8.75;;;;;;;23.65;72.82;100220.53;18366729;32;20170;-56
2022/08/23 07:13:05;;;;;;;17.02;7.53;;;;;;;23.67;72.54;100210.63;18400154;32;570291;-57
2022/08/23 07:23:12;;;;;;;20.73;7.95;;;;;;;24.04;69.13;100228.88;18431466;32;20116;-58
2022/08/23 07:33:22;;;;;;;15.10;7.10;;;;;;;24.02;68.36;100229.91;18431610;32;20100;-57
2022/08/23 07:43:30;;;;;;;13.27;6.43;;;;;;;24.42;66.02;100232.78;18430943;32;20089;-57
2022/08/23 07:53:41;;;;;;;13.32;6.32;;;;;;;25.29;64.38;100239.72;18430787;32;20096;-58
2022/08/23 08:03:53;;;;;;;13.27;6.57;;;;;;;25.45;64.04;100235.03;18412286;32;20073;-57
2022/08/23 08:14:04;;;;;;;12.37;6.12;;;;;;;25.74;62.88;100234.03;18402516;32;20089;-58
2022/08/23 08:24:11;;;;;;;11.80;5.57;;;;;;;25.82;61.83;100237.03;18493238;32;20093;-58
2022/08/23 08:34:20;;;;;;;11.80;5.93;;;;;;;25.86;61.52;100248.38;18493812;32;20481;-58
2022/08/23 08:44:31;;;;;;;;;;;;;;;24.57;61.05;100262.12;18492557;32;20096;-58
2022/08/23 08:54:41;;;;;;;11.23;5.22;;;;;;;25.51;63.61;100267.69;18494115;32;20006;-58
2022/08/23 09:04:54;;;;;;;13.32;5.50;;;;;;;25.41;62.72;100272.75;18499695;32;20133;-57
2022/08/23 09:15:13;;;;;;;10.65;5.05;;;;;;;25.36;64.19;100275.72;18499834;32;20117;-56
2022/08/23 09:25:17;;;;;;;12.88;5.40;;;;;;;25.52;64.89;100277.41;18499882;32;20119;-55
2022/08/23 09:35:26;;;;;;;12.10;4.80;;;;;;;25.74;64.08;100279.47;18485167;32;20117;-55
2022/08/23 09:45:35;;;;;;;11.75;5.28;;;;;;;25.66;61.52;100276.47;18499571;32;20092;-55
2022/08/23 09:55:54;;;;;;;10.70;5.10;;;;;;;25.98;61.07;100274.25;18498623;32;20118;-55
2022/08/23 10:06:02;;;;;;;10.43;5.18;;;;;;;26.23;59.44;100277.06;18455058;32;20119;-55
2022/08/23 10:16:19;;;;;;;10.27;5.32;;;;;;;26.53;59.13;100282.06;18476504;32;20123;-58
2022/08/23 10:26:30;;;;;;;9.70;4.30;;;;;;;26.65;56.66;100279.47;18497772;32;20160;-57
2022/08/23 10:36:58;;;;;;;8.23;3.97;;;;;;;26.59;56.63;100286.12;18498076;32;20115;-57
2022/08/23 10:47:11;;;;;;;11.00;4.60;;;;;;;26.34;55.53;100279.84;18497930;32;20177;-57
2022/08/23 10:57:20;;;;;;;8.20;3.67;;;;;;;27.29;57.78;100279.25;18482889;32;20179;-57
2022/08/23 11:07:29;;;;;;;7.62;3.40;;;;;;;26.93;53.52;100286.38;18497059;32;20115;-57
2022/08/23 11:17:44;;;;;;;9.23;3.33;;;;;;;27.83;49.52;100270.81;18496120;32;20097;-57
2022/08/23 11:27:53;;;;;;;7.18;2.90;;;;;;;28.91;50.14;100264.13;18496757;32;20113;-57
2022/08/23 11:38:02;;;;;;;6.87;3.33;;;;;;;29.15;48.85;100259.53;18496690;32;20084;-55
2022/08/23 11:48:21;;;;;;;6.87;3.20;;;;;;;28.59;46.32;100248.78;18495597;32;20111;-55
2022/08/23 11:58:46;;;;;;;7.85;3.37;;;;;;;27.32;51.82;100247.84;18495035;32;20096;-55
2022/08/23 12:08:59;;;;;;;6.37;2.83;;;;;;;28.32;48.67;100244.66;18494677;32;20116;-55
2022/08/23 12:19:25;;;;;;;6.78;2.90;;;;;;;28.44;45.12;100247.34;18493489;32;20104;-55
2022/08/23 12:29:53;;;;;;;7.60;3.33;;;;;;;29.68;46.18;100242.56;18493726;32;20149;-56
2022/08/23 12:40:00;;;;;;;7.35;3.37;;;;;;;29.88;44.86;100240.00;18501876;32;20092;-55
2022/08/23 12:50:09;;;;;;;5.68;2.67;;;;;;;29.65;45.93;100247.37;18461930;32;20174;-55
2022/08/23 13:00:28;;;;;;;6.85;2.90;;;;;;;28.65;44.79;100255.50;18420401;32;20350;-55
2022/08/23 13:10:40;;;;;;;7.65;3.30;;;;;;;28.98;47.05;100261.81;18439041;32;20088;-55
2022/08/23 13:20:51;;;;;;;7.75;3.20;;;;;;;28.60;49.80;100253.19;18442866;32;20123;-55
2022/08/23 13:31:02;;;;;;;7.45;2.95;;;;;;;29.37;47.98;100247.00;18434963;32;20710;-55
2022/08/23 13:41:32;;;;;;;6.80;3.12;;;;;;;29.31;47.20;100251.03;18434593;32;20100;-56
2022/08/23 13:52:04;;;;;;;8.50;3.30;;;;;;;29.52;47.42;100247.56;18434557;32;20088;-55
2022/08/23 14:02:38;;;;;;;6.77;3.33;;;;;;;29.69;46.01;100243.41;18468958;32;20379;-56
2022/08/23 14:12:48;;;;;;;5.45;2.67;;;;;;;29.73;45.94;100231.41;18483399;32;20538;-56
2022/08/23 14:22:59;;;;;;;10.20;3.40;;;;;;;30.07;44.59;100227.63;18474382;32;20162;-56
2022/08/23 14:33:19;;;;;;;6.60;2.90;;;;;;;29.05;46.13;100236.09;18461462;32;20089;-56
2022/08/23 14:43:27;;;;;;;6.53;2.83;;;;;;;29.60;47.01;100229.78;18470447;32;20160;-56
2022/08/23 14:53:37;;;;;;;6.82;2.67;;;;;;;28.98;47.00;100239.44;18496622;32;20124;-56
2022/08/23 15:03:44;;;;;;;7.80;3.45;;;;;;;28.96;47.90;100236.87;18483148;32;20088;-56
2022/08/23 15:13:50;;;;;;;6.47;3.10;;;;;;;28.74;47.46;100243.13;18472448;32;20175;-56
2022/08/23 15:24:03;;;;;;;7.40;3.22;;;;;;;28.82;49.05;100221.03;18483575;32;20148;-56
2022/08/23 15:34:10;;;;;;;6.55;2.90;;;;;;;29.02;47.64;100224.75;18493707;32;20100;-56
2022/08/23 15:44:18;;;;;;;5.68;2.50;;;;;;;28.56;49.14;100224.00;18493727;32;20108;-56
2022/08/23 15:54:24;;;;;;;5.50;2.80;;;;;;;28.87;47.74;100230.44;18492818;32;20096;-56
2022/08/23 16:04:32;;;;;;;8.15;3.37;;;;;;;28.47;49.51;100237.19;18491260;32;20119;-56
2022/08/23 16:14:38;;;;;;;6.85;3.10;;;;;;;28.12;51.38;100244.37;18490952;32;20112;-57
2022/08/23 16:24:47;;;;;;;6.53;2.78;;;;;;;28.07;51.19;100245.72;18491917;32;20080;-56
2022/08/23 16:34:53;;;;;;;8.63;3.55;;;;;;;27.88;52.04;100249.84;18489702;32;20108;-56
2022/08/23 16:45:02;;;;;;;6.50;3.03;;;;;;;27.76;52.40;100254.34;18489502;32;20100;-56
2022/08/23 16:55:13;;;;;;;8.82;3.85;;;;;;;27.58;52.77;100253.06;18490387;32;20092;-56
2022/08/23 17:05:23;;;;;;;7.17;2.97;;;;;;;27.35;53.40;100255.66;18490966;32;20092;-56
2022/08/23 17:15:34;;;;;;;7.43;3.17;;;;;;;26.82;57.08;100264.84;18477772;32;20420;-56
2022/08/23 17:25:46;;;;;;;6.82;3.05;;;;;;;26.57;57.72;100266.66;18497256;32;20100;-57
2022/08/23 17:35:52;;;;;;;8.63;3.53;;;;;;;26.23;57.35;100290.44;18498750;32;20384;-56
2022/08/23 17:46:05;;;;;;;9.93;4.10;;;;;;;26.18;57.95;100296.97;18496194;32;20123;-56
2022/08/23 17:56:13;;;;;;;9.45;3.25;;;;;;;25.13;61.40;100318.16;18497438;32;20092;-56
2022/08/23 18:06:21;;;;;;;9.18;3.75;;;;;;;25.04;61.65;100330.31;18496937;32;20092;-56
2022/08/23 18:16:28;;;;;;;8.05;3.87;;;;;;;24.97;62.16;100331.66;18481128;32;20119;-56
2022/08/23 18:37:07;;;;;;;7.55;3.80;;;;;;;24.74;63.10;100371.28;18483902;32;20198;-55
2022/08/23 18:47:17;;;;;;;7.03;3.00;;;;;;;24.34;64.52;100406.66;18490745;32;20119;-56
2022/08/23 18:57:24;;;;;;;10.23;3.90;;;;;;;24.28;64.83;100409.66;18497619;32;20107;-56
2022/08/23 19:07:33;;;;;;;7.75;3.05;;;;;;;24.13;64.74;100403.44;18497432;32;20096;-55
2022/08/23 19:17:42;;;;;;;8.10;3.47;;;;;;;23.91;66.07;100412.69;18481767;32;20096;-55
2022/08/23 19:27:51;;;;;;;7.97;3.50;;;;;;;23.61;67.21;100407.31;18496702;32;20092;-56
2022/08/23 19:37:59;;;;;;;8.32;3.37;;;;;;;23.54;67.38;100417.47;18493863;32;20146;-55
2022/08/23 19:48:09;;;;;;;7.03;3.30;;;;;;;23.55;67.27;100420.00;18495924;32;20127;-55
2022/08/23 19:58:15;;;;;;;7.85;3.20;;;;;;;23.40;68.19;100426.22;18493667;32;20111;-56
2022/08/23 20:08:27;;;;;;;7.57;3.28;;;;;;;23.29;68.37;100426.81;18489480;32;20097;-56
2022/08/23 20:18:32;;;;;;;;;;;;;;;23.10;68.73;100427.78;18484292;32;20123;-55
2022/08/23 20:28:38;;;;;;;6.65;3.22;;;;;;;22.81;69.71;100432.00;18489936;32;20002;-55
2022/08/23 20:39:05;;;;;;;9.38;4.05;;;;;;;22.90;69.55;100434.19;18489170;32;20081;-55
2022/08/23 20:49:12;;;;;;;10.63;3.72;;;;;;;22.93;69.76;100428.72;18487772;32;20096;-56
2022/08/23 20:59:16;;;;;;;9.38;3.80;;;;;;;22.85;70.06;100413.13;18481557;32;20203;-56
2022/08/23 21:09:24;;;;;;;9.23;4.47;;;;;;;23.00;68.98;100395.50;18495284;32;20157;-56
2022/08/23 21:19:34;;;;;;;9.48;4.20;;;;;;;22.54;70.61;100403.28;18499581;32;20183;-56
2022/08/23 21:29:44;;;;;;;9.73;3.60;;;;;;;22.48;70.84;100401.78;18457628;32;20100;-55
2022/08/23 21:39:52;;;;;;;8.32;4.12;;;;;;;22.75;70.14;100416.37;18438913;32;20092;-56
2022/08/23 21:50:02;;;;;;;7.72;3.42;;;;;;;22.65;70.39;100406.25;18445084;32;20127;-56
2022/08/23 22:00:13;;;;;;;7.70;3.53;;;;;;;22.61;70.19;100404.66;18420344;32;20101;-56
2022/08/23 22:10:24;;;;;;;8.85;3.87;;;;;;;22.59;70.47;100407.41;18434611;32;20119;-55
2022/08/23 22:20:32;;;;;;;8.23;3.50;;;;;;;22.63;70.26;100412.56;18433917;32;20097;-56
2022/08/23 22:30:43;;;;;;;9.38;3.67;;;;;;;22.38;70.74;100398.72;18434033;32;20092;-55
2022/08/23 22:40:50;;;;;;;;;;;;;;;22.48;69.99;100385.81;18434015;32;20092;-55
2022/08/23 22:51:08;;;;;;;19.75;3.95;;;;;;;22.22;70.71;100385.38;18433598;32;19980;-55
2022/08/23 23:01:21;;;;;;;10.60;3.80;;;;;;;22.10;70.82;100354.09;18432970;32;20436;-56
2022/08/23 23:11:30;;;;;;;9.13;4.00;;;;;;;21.97;70.90;100351.22;18432392;32;20123;-55
2022/08/23 23:21:40;;;;;;;8.77;3.42;;;;;;;21.86;70.76;100357.94;18432211;32;20120;-55
2022/08/23 23:31:50;;;;;;;8.83;3.30;;;;;;;21.86;70.39;100367.69;18432095;32;20178;-55
2022/08/23 23:41:58;;;;;;;9.40;4.10;;;;;;;21.61;70.89;100371.53;18431558;32;20089;-55
2022/08/23 23:52:08;;;;;;;9.30;3.50;;;;;;;21.71;70.36;100371.97;18431362;32;20096;-55
